EGLC/LCY METAR and TAF weather

Enter ICAO airport designator
Station Type Date Time Source
EGLC METAR 2022/07/03 14:50 UTC NOAA

EGLC 031450Z AUTO 31008KT 9999 NCD 21/08 Q1019


Station Type Date Time Source
EGLC Decoded METAR 2022/07/03 14:50 UTC NOAA

London City Airport, United Kingdom (EGLC) 51-30N 000-30W
Jul 03, 2022 - 10:50 AM EDT / 2022.07.03 1450 UTC
Wind: from the NW (310 degrees) at 9 MPH (8 KT):0
Visibility: greater than 7 mile(s):0
Temperature: 69 F (21 C)
Dew Point: 46 F (8 C)
Relative Humidity: 43%
Pressure (altimeter): 30.09 in. Hg (1019 hPa)
ob: EGLC 031450Z AUTO 31008KT 9999 NCD 21/08 Q1019
cycle: 15

Station Type Date Time Source
EGLC TAF 2022/06/16 00:09 UTC NOAA

TAF EGLC 162252Z 1700/1724 20008KT CAVOK PROB30
TEMPO 1712/1716 22015G25KT

Example: see airport list